Accueil
METAR-TAF:

METAR-TAF

Aéroports :

St Athan, Pays de Galles

latitude: 51-24N, longitude: 003-26W, altitude: 50 m

Observation

Le bulletin a été fait il y a 2 heures et 27 minutes, à 00:50 UTC
Vent 5 kt de ouest
Température 16°C
Humidité 88%
Pression 1021 hPa
Visibilité 10 km ou plus

METAR: EGDX 200050Z AUTO 27005KT 9999 OVC016/// 16/14 Q1021

Heure: 04:17 (03:17 UTC)

Prévision

Le bulletin a été fait il y a 11 heures et 48 minutes, à 15:29 UTC
Prévision valable du 19 à 15 UTC au 19 à 18 UTC
Vent 10 kt de ouest
Visibilité 10 km ou plus
Quelques nuages à une hauteur de 1400 ft
Temporairement
du 19 à 15 UTC au 19 à 18 UTC
Nuages épars à une hauteur de 1000 ft
Probabilité 40% :
Temporairement
du 19 à 15 UTC au 19 à 18 UTC
Nuages épars à une hauteur de 300 ft

TAF: EGDX 191529Z 1915/1918 26010KT 9999 FEW014 TEMPO 1915/1918 SCT010 PROB40 TEMPO 1915/1918 SCT003

Observations et prévisions météorologiques de plus de 4000 aéroports (messages METAR et TAF).

Les stations disponibles sont représentées par des disques jaunes et rouges sur la carte.

Passer la souris dessus pour voir le nom de la station.

Cliquer dessus pour voir les observations et prévisions météorologiques.

Pour changer de carte: cliquez sur les boutons verts avec une croix noire pour zoomer, sur le bouton vert avec un tiret pour effectuer un zoom arrière, ou sur les flèches vertes pour les cartes adjacentes.


METAR-TAF: